createdAt,value
2022-08-31T00:01:28.173Z,2.50
2022-08-31T00:04:32.393Z,2.60
2022-08-31T00:07:36.530Z,2.93
2022-08-31T00:10:43.226Z,2.83
2022-08-31T00:13:47.711Z,2.90
2022-08-31T00:16:51.846Z,2.73
2022-08-31T00:22:58.521Z,3.30
2022-08-31T00:26:01.155Z,2.90
2022-08-31T00:29:04.795Z,2.97
2022-08-31T00:32:07.645Z,3.00
2022-08-31T00:35:10.558Z,2.90
2022-08-31T00:38:17.661Z,3.65
2022-08-31T00:41:22.173Z,3.57
2022-08-31T00:44:25.023Z,3.90
2022-08-31T00:47:27.962Z,3.70
2022-08-31T00:50:30.652Z,4.15
2022-08-31T00:53:34.749Z,3.05
2022-08-31T00:56:37.917Z,4.10
2022-08-31T01:02:43.794Z,4.82
2022-08-31T01:05:47.098Z,5.78
2022-08-31T01:11:54.139Z,6.03
2022-08-31T01:14:57.434Z,6.60
2022-08-31T01:18:02.370Z,6.93
2022-08-31T01:21:14.314Z,6.90
2022-08-31T01:24:18.904Z,7.43
2022-08-31T01:27:25.904Z,7.63
2022-08-31T01:30:28.471Z,7.20
2022-08-31T01:33:31.411Z,7.18
2022-08-31T01:36:35.533Z,7.65
2022-08-31T01:39:39.564Z,7.80
2022-08-31T01:42:42.194Z,8.00
2022-08-31T01:45:45.324Z,7.28
2022-08-31T01:48:49.100Z,7.22
2022-08-31T01:51:53.609Z,7.13
2022-08-31T01:54:57.991Z,8.23
2022-08-31T01:58:01.506Z,7.23
2022-08-31T02:01:04.864Z,7.33
2022-08-31T02:04:29.948Z,7.43
2022-08-31T02:07:33.003Z,6.63
2022-08-31T02:10:37.534Z,7.47
2022-08-31T02:13:40.337Z,6.80
2022-08-31T02:16:43.096Z,7.32
2022-08-31T02:19:45.895Z,7.93
2022-08-31T02:22:48.706Z,6.88
2022-08-31T02:25:52.720Z,7.65
2022-08-31T02:28:55.598Z,7.50
2022-08-31T02:31:58.658Z,8.52
2022-08-31T02:35:01.387Z,8.20
2022-08-31T02:38:04.074Z,7.95
2022-08-31T02:41:08.960Z,6.65
2022-08-31T02:44:11.664Z,7.43
2022-08-31T02:47:14.299Z,7.70
2022-08-31T02:50:16.897Z,7.70
2022-08-31T02:53:21.760Z,7.15
2022-08-31T02:56:25.911Z,8.27
2022-08-31T02:59:28.648Z,7.60
2022-08-31T03:02:31.770Z,7.80
2022-08-31T03:05:35.056Z,7.63
2022-08-31T03:08:39.535Z,7.40
2022-08-31T03:11:43.696Z,8.53
2022-08-31T03:14:46.392Z,7.87
2022-08-31T03:17:49.206Z,7.45
2022-08-31T03:20:51.951Z,7.53
2022-08-31T03:23:54.468Z,8.25
2022-08-31T03:26:58.653Z,7.85
2022-08-31T03:30:01.332Z,7.17
2022-08-31T03:33:04.191Z,7.43
2022-08-31T03:36:08.136Z,8.18
2022-08-31T03:39:10.853Z,8.20
2022-08-31T03:42:14.862Z,7.97
2022-08-31T03:45:18.217Z,8.87
2022-08-31T03:51:23.643Z,7.93
2022-08-31T03:54:26.488Z,7.78
2022-08-31T03:57:30.585Z,8.38
2022-08-31T04:00:33.960Z,8.60
2022-08-31T04:06:40.792Z,7.65
2022-08-31T04:09:43.565Z,8.10
2022-08-31T04:12:47.586Z,8.05
2022-08-31T04:15:50.231Z,7.90
2022-08-31T04:18:56.416Z,8.27
2022-08-31T04:21:59.141Z,7.80
2022-08-31T04:25:01.823Z,8.25
2022-08-31T04:28:06.168Z,7.40
2022-08-31T04:31:09.266Z,7.87
2022-08-31T04:34:12.054Z,7.78
2022-08-31T04:37:14.888Z,7.88
2022-08-31T04:40:19.791Z,7.93
2022-08-31T04:43:25.110Z,7.63
2022-08-31T04:46:28.557Z,8.67
2022-08-31T04:49:31.488Z,8.57
2022-08-31T04:52:34.094Z,7.47
2022-08-31T04:55:40.890Z,6.80
2022-08-31T04:58:47.665Z,7.00
2022-08-31T05:01:50.294Z,7.13
2022-08-31T05:04:53.138Z,7.47
2022-08-31T05:07:55.895Z,7.57
2022-08-31T05:10:58.607Z,7.50
2022-08-31T05:14:04.009Z,7.95
2022-08-31T05:17:08.032Z,8.50
2022-08-31T05:20:17.847Z,7.47
2022-08-31T05:23:20.626Z,8.30
2022-08-31T05:26:26.776Z,6.82
2022-08-31T05:29:30.929Z,8.20
2022-08-31T05:32:34.129Z,7.63
2022-08-31T05:35:37.554Z,7.28
2022-08-31T05:38:41.027Z,7.80
2022-08-31T05:41:47.298Z,7.63
2022-08-31T05:44:51.307Z,8.33
2022-08-31T05:47:54.009Z,8.57
2022-08-31T05:50:56.552Z,8.13
2022-08-31T05:54:00.578Z,9.80
2022-08-31T05:57:03.832Z,7.05
2022-08-31T06:00:09.581Z,7.55
2022-08-31T06:03:12.625Z,6.87
2022-08-31T06:06:16.200Z,7.82
2022-08-31T06:09:18.920Z,6.40
2022-08-31T06:12:25.576Z,7.03
2022-08-31T06:15:29.550Z,7.03
2022-08-31T06:18:32.124Z,6.63
2022-08-31T06:21:36.958Z,6.82
2022-08-31T06:24:39.679Z,7.07
2022-08-31T06:27:44.122Z,8.23
2022-08-31T06:30:55.234Z,7.30
2022-08-31T06:33:59.611Z,7.23
2022-08-31T06:37:02.220Z,7.50
2022-08-31T06:40:05.342Z,8.20
2022-08-31T06:43:08.409Z,6.85
2022-08-31T06:46:14.127Z,7.60
2022-08-31T06:49:17.064Z,6.90
2022-08-31T06:52:21.056Z,6.63
2022-08-31T06:55:24.442Z,6.50
2022-08-31T06:58:27.090Z,5.97
2022-08-31T07:01:35.289Z,7.00
2022-08-31T07:04:40.021Z,6.47
2022-08-31T07:07:42.631Z,6.77
2022-08-31T07:10:45.347Z,6.68
2022-08-31T07:13:48.530Z,6.13
2022-08-31T07:16:54.307Z,5.45
2022-08-31T07:19:56.895Z,5.57
2022-08-31T07:22:59.635Z,5.00
2022-08-31T07:26:05.277Z,4.68
2022-08-31T07:29:10.062Z,4.60
2022-08-31T07:32:15.690Z,5.47
2022-08-31T07:35:18.708Z,5.13
2022-08-31T07:38:39.151Z,4.90
2022-08-31T07:41:59.522Z,5.47
2022-08-31T07:45:05.439Z,5.27
2022-08-31T07:48:09.660Z,4.83
2022-08-31T07:51:15.096Z,4.40
2022-08-31T07:54:20.552Z,4.67
2022-08-31T07:57:25.833Z,4.43
2022-08-31T08:00:33.073Z,4.70
2022-08-31T08:03:37.014Z,5.23
2022-08-31T08:06:40.231Z,4.83
2022-08-31T08:09:42.924Z,5.45
2022-08-31T08:12:48.428Z,5.25
2022-08-31T08:15:53.988Z,5.50
2022-08-31T08:18:58.093Z,5.40
2022-08-31T08:22:02.825Z,5.00
2022-08-31T08:25:07.003Z,6.03
2022-08-31T08:28:29.020Z,6.03
2022-08-31T08:34:43.379Z,5.40
2022-08-31T08:37:58.633Z,5.80
2022-08-31T08:41:06.934Z,5.20
2022-08-31T08:44:11.350Z,5.70
2022-08-31T08:47:23.914Z,5.30
2022-08-31T08:50:29.734Z,5.47
2022-08-31T08:53:33.220Z,5.37
2022-08-31T08:56:47.577Z,5.73
2022-08-31T08:59:51.017Z,5.60
2022-08-31T09:02:58.318Z,4.83
2022-08-31T09:06:10.493Z,5.47
2022-08-31T09:09:30.690Z,4.33
2022-08-31T09:12:42.111Z,4.20
2022-08-31T09:15:53.009Z,4.70
2022-08-31T09:18:58.073Z,4.10
2022-08-31T09:22:03.098Z,4.97
2022-08-31T09:25:06.407Z,5.30
2022-08-31T09:28:11.178Z,4.77
2022-08-31T09:31:32.662Z,5.13
2022-08-31T09:34:38.564Z,4.87
2022-08-31T09:37:46.089Z,4.50
2022-08-31T09:40:50.558Z,5.00
2022-08-31T09:43:55.291Z,5.70
2022-08-31T09:47:01.949Z,4.47
2022-08-31T09:50:08.337Z,5.07
2022-08-31T09:53:34.781Z,5.03
2022-08-31T09:56:55.528Z,5.87
2022-08-31T09:59:58.398Z,4.70
2022-08-31T10:03:08.864Z,4.97
2022-08-31T10:06:26.348Z,5.07
2022-08-31T10:09:36.101Z,4.53
2022-08-31T10:12:42.295Z,4.80
2022-08-31T10:15:50.799Z,4.50
2022-08-31T10:18:59.239Z,4.23
2022-08-31T10:22:04.693Z,4.63
2022-08-31T10:25:15.321Z,3.97
2022-08-31T10:28:21.685Z,4.60
2022-08-31T10:31:30.063Z,4.07
2022-08-31T10:34:53.188Z,4.00
2022-08-31T10:37:59.938Z,4.68
2022-08-31T10:41:10.821Z,4.20
2022-08-31T10:44:18.213Z,4.10
2022-08-31T10:47:34.249Z,4.40
2022-08-31T10:50:45.300Z,4.67
2022-08-31T10:53:55.400Z,4.80
2022-08-31T10:57:07.323Z,4.70
2022-08-31T11:00:34.769Z,4.47
2022-08-31T11:03:57.431Z,4.80
2022-08-31T11:07:03.760Z,5.83
2022-08-31T11:10:20.061Z,5.50
2022-08-31T11:13:39.476Z,4.40
2022-08-31T11:16:55.098Z,4.77
2022-08-31T11:20:12.182Z,4.47
2022-08-31T11:23:27.888Z,5.00
2022-08-31T11:26:45.131Z,4.57
2022-08-31T11:29:58.148Z,5.07
2022-08-31T11:33:07.622Z,4.35
2022-08-31T11:36:10.296Z,4.77
2022-08-31T11:39:40.197Z,4.80
2022-08-31T11:43:01.107Z,4.80
2022-08-31T11:46:37.869Z,4.93
2022-08-31T11:49:48.486Z,5.23
2022-08-31T11:52:53.414Z,4.80
2022-08-31T11:56:03.915Z,5.33
2022-08-31T11:59:26.535Z,4.90
2022-08-31T12:02:45.451Z,5.03
2022-08-31T12:05:58.013Z,5.13
2022-08-31T12:09:15.594Z,4.78
2022-08-31T12:12:29.294Z,4.87
2022-08-31T12:15:46.809Z,4.83
2022-08-31T12:19:01.337Z,5.27
2022-08-31T12:22:34.955Z,4.83
2022-08-31T12:25:44.019Z,5.93
2022-08-31T12:29:01.920Z,5.40
2022-08-31T12:32:11.477Z,5.00
2022-08-31T12:35:17.687Z,5.13
2022-08-31T12:38:23.625Z,5.30
2022-08-31T12:41:26.349Z,4.13
2022-08-31T12:44:32.917Z,4.95
2022-08-31T12:47:43.075Z,4.90
2022-08-31T12:50:49.911Z,4.70
2022-08-31T12:54:06.086Z,5.15
2022-08-31T12:57:13.156Z,4.40
2022-08-31T13:00:25.872Z,4.97
2022-08-31T13:03:30.721Z,5.03
2022-08-31T13:06:35.382Z,5.05
2022-08-31T13:09:40.638Z,4.90
2022-08-31T13:12:49.205Z,5.43
2022-08-31T13:15:53.066Z,4.93
2022-08-31T13:19:00.289Z,5.10
2022-08-31T13:22:06.095Z,5.40
2022-08-31T13:25:16.430Z,3.88
2022-08-31T13:28:26.228Z,4.13
2022-08-31T13:31:31.442Z,5.00
2022-08-31T13:34:39.334Z,5.03
2022-08-31T13:37:45.791Z,4.60
2022-08-31T13:40:52.465Z,4.43
2022-08-31T13:44:01.256Z,4.25
2022-08-31T13:47:13.012Z,4.85
2022-08-31T13:50:21.883Z,4.05
2022-08-31T13:53:39.479Z,4.75
2022-08-31T13:56:58.755Z,4.05
2022-08-31T14:00:27.333Z,4.22
2022-08-31T14:03:33.036Z,4.63
2022-08-31T14:06:38.054Z,3.83
2022-08-31T14:09:43.318Z,3.83
2022-08-31T14:12:50.530Z,4.60
2022-08-31T14:15:56.206Z,3.90
2022-08-31T14:18:59.757Z,4.00
2022-08-31T14:22:17.177Z,4.05
2022-08-31T14:25:22.163Z,4.05
2022-08-31T14:28:37.218Z,4.40
2022-08-31T14:31:45.247Z,3.60
2022-08-31T14:34:49.110Z,4.32
2022-08-31T14:37:51.712Z,3.83
2022-08-31T14:40:54.432Z,3.53
2022-08-31T14:44:10.010Z,3.40
2022-08-31T14:47:12.782Z,3.60
2022-08-31T14:50:18.751Z,3.65
2022-08-31T14:53:21.992Z,3.50
2022-08-31T14:56:33.149Z,4.07
2022-08-31T14:59:39.641Z,3.45
2022-08-31T15:02:43.738Z,3.45
2022-08-31T15:05:48.905Z,3.40
2022-08-31T15:08:52.035Z,3.63
2022-08-31T15:11:58.002Z,3.15
2022-08-31T15:15:01.890Z,3.60
2022-08-31T15:18:04.907Z,3.25
2022-08-31T15:21:07.612Z,3.58
2022-08-31T15:24:10.722Z,3.90
2022-08-31T15:27:15.343Z,3.28
2022-08-31T15:30:20.145Z,2.70
2022-08-31T15:33:22.871Z,2.80
2022-08-31T15:36:27.089Z,3.20
2022-08-31T15:39:32.566Z,2.80
2022-08-31T15:42:38.312Z,3.20
2022-08-31T15:45:42.602Z,2.93
2022-08-31T15:48:45.877Z,3.00
2022-08-31T15:51:49.153Z,3.00
2022-08-31T15:54:52.158Z,3.57
2022-08-31T15:57:55.731Z,3.35
2022-08-31T16:00:59.810Z,3.10
2022-08-31T16:04:04.938Z,3.20
2022-08-31T16:07:09.471Z,3.57
2022-08-31T16:10:15.636Z,3.20
2022-08-31T16:13:22.002Z,3.40
2022-08-31T16:16:27.450Z,3.05
2022-08-31T16:19:36.169Z,3.10
2022-08-31T16:22:39.146Z,3.27
2022-08-31T16:25:48.068Z,3.38
2022-08-31T16:28:51.594Z,2.77
2022-08-31T16:31:56.406Z,2.92
2022-08-31T16:35:00.001Z,3.33
2022-08-31T16:38:02.714Z,3.50
2022-08-31T16:41:06.429Z,3.10
2022-08-31T16:44:19.703Z,4.22
2022-08-31T16:47:24.415Z,3.38
2022-08-31T16:50:26.094Z,3.17
2022-08-31T16:53:28.907Z,3.30
2022-08-31T16:59:36.898Z,3.47
2022-08-31T17:02:41.114Z,3.43
2022-08-31T17:05:44.013Z,3.73
2022-08-31T17:08:47.156Z,3.38
2022-08-31T17:11:55.527Z,3.30
2022-08-31T17:15:00.519Z,3.13
2022-08-31T17:18:04.701Z,3.00
2022-08-31T17:21:07.726Z,3.10
2022-08-31T17:24:14.915Z,3.10
2022-08-31T17:27:20.579Z,3.57
2022-08-31T17:30:23.261Z,3.13
2022-08-31T17:33:27.391Z,2.95
2022-08-31T17:36:37.377Z,3.50
2022-08-31T17:39:40.828Z,3.00
2022-08-31T17:48:51.332Z,2.87
2022-08-31T17:51:55.532Z,3.37
2022-08-31T17:55:00.211Z,3.17
2022-08-31T17:58:02.925Z,3.90
2022-08-31T18:01:07.286Z,3.55
2022-08-31T18:04:12.379Z,3.60
2022-08-31T18:07:15.373Z,3.10
2022-08-31T18:10:19.060Z,3.63
2022-08-31T18:13:21.895Z,3.67
2022-08-31T18:16:27.409Z,3.93
2022-08-31T18:19:33.369Z,3.78
2022-08-31T18:22:35.989Z,3.83
2022-08-31T18:25:40.961Z,4.18
2022-08-31T18:28:44.125Z,4.00
2022-08-31T18:31:50.133Z,4.18
2022-08-31T18:34:57.383Z,4.77
2022-08-31T18:38:00.437Z,4.47
2022-08-31T18:41:23.426Z,5.15
2022-08-31T18:44:43.877Z,4.72
2022-08-31T18:48:07.235Z,4.33
2022-08-31T18:51:13.635Z,4.63
2022-08-31T18:54:19.258Z,5.43
2022-08-31T18:57:24.538Z,4.68
2022-08-31T19:00:28.971Z,6.30
2022-08-31T19:03:31.952Z,6.27
2022-08-31T19:06:36.225Z,4.97
2022-08-31T19:09:39.357Z,5.90
2022-08-31T19:12:43.555Z,6.15
2022-08-31T19:15:47.029Z,6.33
2022-08-31T19:18:50.607Z,6.63
2022-08-31T19:21:55.468Z,6.67
2022-08-31T19:24:58.241Z,6.47
2022-08-31T19:28:02.028Z,6.75
2022-08-31T19:31:06.561Z,7.10
2022-08-31T19:34:10.223Z,7.00
2022-08-31T19:37:16.040Z,7.40
2022-08-31T19:40:19.406Z,7.40
2022-08-31T19:46:52.509Z,8.03
2022-08-31T19:49:56.075Z,7.40
2022-08-31T19:56:06.504Z,7.80
2022-08-31T19:59:10.233Z,8.30
2022-08-31T20:02:14.281Z,8.07
2022-08-31T20:05:17.616Z,9.43
2022-08-31T20:11:30.431Z,9.33
2022-08-31T20:14:33.356Z,8.40
2022-08-31T20:17:36.229Z,9.05
2022-08-31T20:20:43.540Z,8.73
2022-08-31T20:23:49.944Z,9.90
2022-08-31T20:26:57.045Z,9.83
2022-08-31T20:30:00.435Z,10.17
2022-08-31T20:36:18.818Z,9.98
2022-08-31T20:39:25.485Z,10.17
2022-08-31T20:42:28.351Z,10.20
2022-08-31T20:45:31.118Z,10.35
2022-08-31T20:48:59.789Z,10.45
2022-08-31T20:52:02.854Z,10.73
2022-08-31T20:55:08.423Z,11.82
2022-08-31T20:58:11.432Z,11.17
2022-08-31T21:01:15.983Z,11.48
2022-08-31T21:04:19.286Z,10.73
2022-08-31T21:07:23.284Z,11.18
2022-08-31T21:10:37.067Z,11.23
2022-08-31T21:13:40.774Z,11.77
2022-08-31T21:16:43.902Z,11.50
2022-08-31T21:19:46.726Z,12.85
2022-08-31T21:22:49.295Z,12.18
2022-08-31T21:25:55.211Z,12.32
2022-08-31T21:28:58.011Z,13.57
2022-08-31T21:32:03.837Z,12.15
2022-08-31T21:35:07.371Z,13.03
2022-08-31T21:41:17.980Z,13.63
2022-08-31T21:44:21.746Z,14.33
2022-08-31T21:47:24.495Z,13.67
2022-08-31T21:50:28.432Z,13.68
2022-08-31T21:53:31.124Z,14.40
2022-08-31T21:56:39.289Z,15.00
2022-08-31T21:59:42.959Z,14.57
2022-08-31T22:02:46.901Z,15.25
2022-08-31T22:05:50.316Z,14.03
2022-08-31T22:08:55.203Z,14.30
2022-08-31T22:12:03.075Z,15.63
2022-08-31T22:15:10.269Z,15.53
2022-08-31T22:21:36.707Z,16.03
2022-08-31T22:24:39.523Z,16.70
2022-08-31T22:27:46.652Z,16.00
2022-08-31T22:30:49.534Z,16.97
2022-08-31T22:33:52.903Z,16.08
2022-08-31T22:36:56.619Z,15.35
2022-08-31T22:39:59.286Z,16.10
2022-08-31T22:43:05.735Z,17.58
2022-08-31T22:46:11.605Z,16.63
2022-08-31T22:49:14.822Z,15.77
2022-08-31T22:52:17.564Z,15.68
2022-08-31T22:55:20.269Z,17.02
2022-08-31T22:58:24.282Z,16.17
2022-08-31T23:01:29.341Z,16.60
2022-08-31T23:04:34.173Z,15.13
2022-08-31T23:07:36.919Z,15.23
2022-08-31T23:10:40.265Z,14.27
2022-08-31T23:16:59.194Z,14.50
2022-08-31T23:20:03.285Z,15.17
2022-08-31T23:23:06.197Z,15.43
2022-08-31T23:26:10.714Z,13.18
2022-08-31T23:29:18.047Z,13.93
2022-08-31T23:32:23.363Z,13.80
2022-08-31T23:35:28.325Z,13.73
2022-08-31T23:38:32.513Z,12.60
2022-08-31T23:41:39.038Z,12.30
2022-08-31T23:44:46.350Z,12.10
2022-08-31T23:47:50.062Z,12.20
2022-08-31T23:50:53.049Z,13.17
2022-08-31T23:53:56.957Z,11.80
2022-08-31T23:57:00.035Z,12.73
